Pasinler, Turkey
Current Conditions -  °F | °C
As of 12:20 AM on Saturday 01 Nov 2014 (Local Time) from LTCE Reporting Station
Broken Clouds Broken Clouds  
Wind Chill: 39°   Ceiling: 8000
Heat Index: 39°   Visibility: 6mi
Dew Point: 39°   Wind: 2mph
Humidity: 100%   Direction: NA
Pressure: 29.91"   Gusts: NA
Location:  39.99°N, 41.69°E
Report Text: LTCE 312120Z VRB02KT 9999 SCT030 BKN080 04/04 Q1013 RERA NOSIG
Loading
Personal Weather Stations






























Interactive Weather Map New forecast layout! Learn more

10-Day Weather Forecast

Advertisements
Track Severe Weather on mobile